sensor_id;sensor_type;location;lat;lon;timestamp;P1;durP1;ratioP1;P2;durP2;ratioP2
17369;SDS011;8802;52.402;4.920;2022-12-07T00:02:40;4.93;;;1.75;;
17369;SDS011;8802;52.402;4.920;2022-12-07T00:05:07;3.38;;;1.35;;
17369;SDS011;8802;52.402;4.920;2022-12-07T00:07:34;5.85;;;1.70;;
17369;SDS011;8802;52.402;4.920;2022-12-07T00:10:02;4.78;;;1.67;;
17369;SDS011;8802;52.402;4.920;2022-12-07T00:12:30;4.40;;;1.48;;
17369;SDS011;8802;52.402;4.920;2022-12-07T00:14:56;7.72;;;1.88;;
17369;SDS011;8802;52.402;4.920;2022-12-07T00:17:23;6.20;;;1.45;;
17369;SDS011;8802;52.402;4.920;2022-12-07T00:19:50;4.35;;;1.50;;
17369;SDS011;8802;52.402;4.920;2022-12-07T00:22:17;5.90;;;1.30;;
17369;SDS011;8802;52.402;4.920;2022-12-07T00:24:43;4.85;;;1.60;;
17369;SDS011;8802;52.402;4.920;2022-12-07T00:27:12;4.68;;;1.25;;
17369;SDS011;8802;52.402;4.920;2022-12-07T00:29:39;2.53;;;1.20;;
17369;SDS011;8802;52.402;4.920;2022-12-07T00:32:05;2.92;;;1.00;;
17369;SDS011;8802;52.402;4.920;2022-12-07T00:34:32;5.50;;;1.33;;
17369;SDS011;8802;52.402;4.920;2022-12-07T00:36:59;3.67;;;1.20;;
17369;SDS011;8802;52.402;4.920;2022-12-07T00:39:26;2.42;;;0.88;;
17369;SDS011;8802;52.402;4.920;2022-12-07T00:41:53;3.35;;;1.30;;
17369;SDS011;8802;52.402;4.920;2022-12-07T00:44:21;2.00;;;1.05;;
17369;SDS011;8802;52.402;4.920;2022-12-07T00:46:48;2.92;;;1.05;;
17369;SDS011;8802;52.402;4.920;2022-12-07T00:49:14;2.72;;;0.82;;
17369;SDS011;8802;52.402;4.920;2022-12-07T00:51:41;3.72;;;1.27;;
17369;SDS011;8802;52.402;4.920;2022-12-07T00:54:08;7.00;;;1.15;;
17369;SDS011;8802;52.402;4.920;2022-12-07T00:56:35;6.40;;;1.13;;
17369;SDS011;8802;52.402;4.920;2022-12-07T00:59:02;4.00;;;1.15;;
17369;SDS011;8802;52.402;4.920;2022-12-07T01:01:31;3.33;;;0.95;;
17369;SDS011;8802;52.402;4.920;2022-12-07T01:03:59;4.05;;;1.02;;
17369;SDS011;8802;52.402;4.920;2022-12-07T01:06:27;3.28;;;1.00;;
17369;SDS011;8802;52.402;4.920;2022-12-07T01:08:54;6.72;;;1.30;;
17369;SDS011;8802;52.402;4.920;2022-12-07T01:11:22;2.20;;;0.90;;
17369;SDS011;8802;52.402;4.920;2022-12-07T01:13:51;4.00;;;1.20;;
17369;SDS011;8802;52.402;4.920;2022-12-07T01:16:19;4.15;;;1.20;;
17369;SDS011;8802;52.402;4.920;2022-12-07T01:18:49;6.47;;;1.15;;
17369;SDS011;8802;52.402;4.920;2022-12-07T01:21:19;3.50;;;0.85;;
17369;SDS011;8802;52.402;4.920;2022-12-07T01:23:47;3.40;;;0.82;;
17369;SDS011;8802;52.402;4.920;2022-12-07T01:26:15;3.38;;;0.80;;
17369;SDS011;8802;52.402;4.920;2022-12-07T01:28:43;3.97;;;0.88;;
17369;SDS011;8802;52.402;4.920;2022-12-07T01:31:11;4.40;;;0.90;;
17369;SDS011;8802;52.402;4.920;2022-12-07T01:33:40;5.35;;;1.23;;
17369;SDS011;8802;52.402;4.920;2022-12-07T01:36:13;6.05;;;0.98;;
17369;SDS011;8802;52.402;4.920;2022-12-07T01:38:41;5.10;;;0.85;;
17369;SDS011;8802;52.402;4.920;2022-12-07T01:41:08;3.58;;;0.80;;
17369;SDS011;8802;52.402;4.920;2022-12-07T01:43:35;5.13;;;0.70;;
17369;SDS011;8802;52.402;4.920;2022-12-07T01:46:03;4.45;;;0.70;;
17369;SDS011;8802;52.402;4.920;2022-12-07T01:48:31;1.83;;;0.60;;
17369;SDS011;8802;52.402;4.920;2022-12-07T01:51:01;3.92;;;0.82;;
17369;SDS011;8802;52.402;4.920;2022-12-07T01:53:32;4.13;;;0.70;;
17369;SDS011;8802;52.402;4.920;2022-12-07T01:56:02;3.30;;;0.85;;
17369;SDS011;8802;52.402;4.920;2022-12-07T01:58:29;3.25;;;1.00;;
17369;SDS011;8802;52.402;4.920;2022-12-07T02:00:56;5.97;;;1.63;;
17369;SDS011;8802;52.402;4.920;2022-12-07T02:03:24;2.85;;;1.27;;
17369;SDS011;8802;52.402;4.920;2022-12-07T02:05:56;2.83;;;0.73;;
17369;SDS011;8802;52.402;4.920;2022-12-07T02:08:24;3.33;;;0.80;;
17369;SDS011;8802;52.402;4.920;2022-12-07T02:10:53;2.58;;;0.80;;
17369;SDS011;8802;52.402;4.920;2022-12-07T02:13:21;4.93;;;1.42;;
17369;SDS011;8802;52.402;4.920;2022-12-07T02:15:58;6.63;;;1.45;;
17369;SDS011;8802;52.402;4.920;2022-12-07T02:18:41;5.72;;;1.48;;
17369;SDS011;8802;52.402;4.920;2022-12-07T02:21:23;3.83;;;1.45;;
17369;SDS011;8802;52.402;4.920;2022-12-07T02:30:13;3.45;;;1.20;;
17369;SDS011;8802;52.402;4.920;2022-12-07T02:32:43;3.72;;;1.33;;
17369;SDS011;8802;52.402;4.920;2022-12-07T02:35:17;5.55;;;1.15;;
17369;SDS011;8802;52.402;4.920;2022-12-07T02:37:48;4.95;;;1.17;;
17369;SDS011;8802;52.402;4.920;2022-12-07T02:40:22;3.95;;;1.10;;
17369;SDS011;8802;52.402;4.920;2022-12-07T02:42:55;3.58;;;0.90;;
17369;SDS011;8802;52.402;4.920;2022-12-07T02:45:28;3.35;;;1.00;;
17369;SDS011;8802;52.402;4.920;2022-12-07T02:47:58;2.78;;;1.00;;
17369;SDS011;8802;52.402;4.920;2022-12-07T02:50:26;5.88;;;1.23;;
17369;SDS011;8802;52.402;4.920;2022-12-07T02:52:53;3.53;;;0.80;;
17369;SDS011;8802;52.402;4.920;2022-12-07T02:55:22;3.75;;;0.90;;
17369;SDS011;8802;52.402;4.920;2022-12-07T02:58:03;2.40;;;0.80;;
17369;SDS011;8802;52.402;4.920;2022-12-07T03:00:48;2.83;;;0.82;;
17369;SDS011;8802;52.402;4.920;2022-12-07T03:03:21;2.85;;;0.93;;
17369;SDS011;8802;52.402;4.920;2022-12-07T03:05:53;3.50;;;0.80;;
17369;SDS011;8802;52.402;4.920;2022-12-07T03:08:37;5.82;;;1.17;;
17369;SDS011;8802;52.402;4.920;2022-12-07T03:11:11;2.50;;;0.80;;
17369;SDS011;8802;52.402;4.920;2022-12-07T03:13:41;3.83;;;1.00;;
17369;SDS011;8802;52.402;4.920;2022-12-07T03:16:16;7.75;;;1.20;;
17369;SDS011;8802;52.402;4.920;2022-12-07T03:18:46;3.13;;;1.02;;
17369;SDS011;8802;52.402;4.920;2022-12-07T03:21:17;9.27;;;1.10;;
17369;SDS011;8802;52.402;4.920;2022-12-07T03:23:48;5.03;;;1.00;;
17369;SDS011;8802;52.402;4.920;2022-12-07T03:26:18;3.28;;;1.10;;
17369;SDS011;8802;52.402;4.920;2022-12-07T03:28:49;3.42;;;0.85;;
17369;SDS011;8802;52.402;4.920;2022-12-07T03:31:21;5.13;;;1.13;;
17369;SDS011;8802;52.402;4.920;2022-12-07T03:33:52;5.38;;;1.05;;
17369;SDS011;8802;52.402;4.920;2022-12-07T03:36:24;3.20;;;0.90;;
17369;SDS011;8802;52.402;4.920;2022-12-07T03:38:57;2.03;;;0.93;;
17369;SDS011;8802;52.402;4.920;2022-12-07T03:41:29;5.55;;;1.20;;
17369;SDS011;8802;52.402;4.920;2022-12-07T03:43:58;4.22;;;1.33;;
17369;SDS011;8802;52.402;4.920;2022-12-07T03:46:29;4.80;;;1.20;;
17369;SDS011;8802;52.402;4.920;2022-12-07T03:49:04;4.25;;;1.40;;
17369;SDS011;8802;52.402;4.920;2022-12-07T03:51:36;6.05;;;1.20;;
17369;SDS011;8802;52.402;4.920;2022-12-07T03:54:09;4.03;;;0.82;;
17369;SDS011;8802;52.402;4.920;2022-12-07T03:56:40;3.05;;;0.65;;
17369;SDS011;8802;52.402;4.920;2022-12-07T03:59:08;4.95;;;0.70;;
17369;SDS011;8802;52.402;4.920;2022-12-07T04:01:38;3.67;;;1.00;;
17369;SDS011;8802;52.402;4.920;2022-12-07T04:04:08;4.82;;;0.70;;
17369;SDS011;8802;52.402;4.920;2022-12-07T04:06:35;4.57;;;0.93;;
17369;SDS011;8802;52.402;4.920;2022-12-07T04:09:01;6.22;;;0.88;;
17369;SDS011;8802;52.402;4.920;2022-12-07T04:11:28;4.18;;;0.75;;
17369;SDS011;8802;52.402;4.920;2022-12-07T04:13:55;2.97;;;0.80;;
17369;SDS011;8802;52.402;4.920;2022-12-07T04:16:41;4.47;;;1.00;;
17369;SDS011;8802;52.402;4.920;2022-12-07T04:19:08;3.05;;;0.75;;
17369;SDS011;8802;52.402;4.920;2022-12-07T04:21:35;3.72;;;0.95;;
17369;SDS011;8802;52.402;4.920;2022-12-07T04:24:02;3.75;;;0.55;;
17369;SDS011;8802;52.402;4.920;2022-12-07T04:26:29;3.20;;;0.63;;
17369;SDS011;8802;52.402;4.920;2022-12-07T04:28:56;2.38;;;0.82;;
17369;SDS011;8802;52.402;4.920;2022-12-07T04:31:22;3.88;;;0.77;;
17369;SDS011;8802;52.402;4.920;2022-12-07T04:33:50;1.55;;;0.68;;
17369;SDS011;8802;52.402;4.920;2022-12-07T04:36:17;4.90;;;1.00;;
17369;SDS011;8802;52.402;4.920;2022-12-07T04:38:45;3.10;;;0.70;;
17369;SDS011;8802;52.402;4.920;2022-12-07T04:41:12;3.42;;;0.80;;
17369;SDS011;8802;52.402;4.920;2022-12-07T04:43:39;2.50;;;1.00;;
17369;SDS011;8802;52.402;4.920;2022-12-07T04:46:06;5.22;;;1.17;;
17369;SDS011;8802;52.402;4.920;2022-12-07T04:48:33;3.92;;;0.95;;
17369;SDS011;8802;52.402;4.920;2022-12-07T04:51:01;5.97;;;1.13;;
17369;SDS011;8802;52.402;4.920;2022-12-07T04:53:28;2.75;;;0.70;;
17369;SDS011;8802;52.402;4.920;2022-12-07T04:55:55;2.05;;;0.75;;
17369;SDS011;8802;52.402;4.920;2022-12-07T04:58:22;3.80;;;0.93;;
17369;SDS011;8802;52.402;4.920;2022-12-07T05:00:49;3.25;;;0.85;;
17369;SDS011;8802;52.402;4.920;2022-12-07T05:03:19;3.28;;;1.02;;
17369;SDS011;8802;52.402;4.920;2022-12-07T05:05:46;7.50;;;1.13;;
17369;SDS011;8802;52.402;4.920;2022-12-07T05:08:14;6.03;;;1.13;;
17369;SDS011;8802;52.402;4.920;2022-12-07T05:10:41;3.08;;;1.10;;
17369;SDS011;8802;52.402;4.920;2022-12-07T05:13:08;5.32;;;1.20;;
17369;SDS011;8802;52.402;4.920;2022-12-07T05:15:34;4.10;;;1.00;;
17369;SDS011;8802;52.402;4.920;2022-12-07T05:18:01;4.13;;;0.85;;
17369;SDS011;8802;52.402;4.920;2022-12-07T05:20:29;3.65;;;1.05;;
17369;SDS011;8802;52.402;4.920;2022-12-07T05:22:56;5.50;;;0.93;;
17369;SDS011;8802;52.402;4.920;2022-12-07T05:25:24;6.97;;;1.25;;
17369;SDS011;8802;52.402;4.920;2022-12-07T05:27:51;5.90;;;1.10;;
17369;SDS011;8802;52.402;4.920;2022-12-07T05:30:18;5.03;;;0.80;;
17369;SDS011;8802;52.402;4.920;2022-12-07T05:32:45;3.90;;;0.63;;
17369;SDS011;8802;52.402;4.920;2022-12-07T05:35:12;2.78;;;0.60;;
17369;SDS011;8802;52.402;4.920;2022-12-07T05:37:39;6.57;;;0.70;;
17369;SDS011;8802;52.402;4.920;2022-12-07T05:40:06;3.15;;;0.88;;
17369;SDS011;8802;52.402;4.920;2022-12-07T05:42:35;5.60;;;0.68;;
17369;SDS011;8802;52.402;4.920;2022-12-07T05:45:02;2.90;;;0.65;;
17369;SDS011;8802;52.402;4.920;2022-12-07T05:47:30;3.30;;;0.73;;
17369;SDS011;8802;52.402;4.920;2022-12-07T05:49:57;3.55;;;0.82;;
17369;SDS011;8802;52.402;4.920;2022-12-07T05:52:24;2.25;;;0.60;;
17369;SDS011;8802;52.402;4.920;2022-12-07T05:54:51;4.13;;;0.60;;
17369;SDS011;8802;52.402;4.920;2022-12-07T05:57:18;2.05;;;0.50;;
17369;SDS011;8802;52.402;4.920;2022-12-07T05:59:46;3.60;;;0.80;;
17369;SDS011;8802;52.402;4.920;2022-12-07T06:02:13;4.10;;;0.75;;
17369;SDS011;8802;52.402;4.920;2022-12-07T06:04:41;3.33;;;0.70;;
17369;SDS011;8802;52.402;4.920;2022-12-07T06:07:10;2.83;;;0.95;;
17369;SDS011;8802;52.402;4.920;2022-12-07T06:09:38;4.15;;;0.95;;
17369;SDS011;8802;52.402;4.920;2022-12-07T06:12:05;4.97;;;0.60;;
17369;SDS011;8802;52.402;4.920;2022-12-07T06:14:51;2.80;;;0.52;;
17369;SDS011;8802;52.402;4.920;2022-12-07T06:17:18;3.88;;;0.80;;
17369;SDS011;8802;52.402;4.920;2022-12-07T06:19:45;1.75;;;0.40;;
17369;SDS011;8802;52.402;4.920;2022-12-07T06:22:12;1.90;;;0.40;;
17369;SDS011;8802;52.402;4.920;2022-12-07T06:24:41;3.70;;;0.60;;
17369;SDS011;8802;52.402;4.920;2022-12-07T06:27:08;2.22;;;0.35;;
17369;SDS011;8802;52.402;4.920;2022-12-07T06:29:36;3.65;;;0.52;;
17369;SDS011;8802;52.402;4.920;2022-12-07T06:32:04;2.67;;;0.38;;
17369;SDS011;8802;52.402;4.920;2022-12-07T06:34:31;3.83;;;0.50;;
17369;SDS011;8802;52.402;4.920;2022-12-07T06:36:58;2.95;;;0.43;;
17369;SDS011;8802;52.402;4.920;2022-12-07T06:39:25;3.13;;;0.47;;
17369;SDS011;8802;52.402;4.920;2022-12-07T06:41:53;3.38;;;0.70;;
17369;SDS011;8802;52.402;4.920;2022-12-07T06:44:21;2.08;;;0.47;;
17369;SDS011;8802;52.402;4.920;2022-12-07T06:46:48;1.35;;;0.43;;
17369;SDS011;8802;52.402;4.920;2022-12-07T06:49:17;2.00;;;0.57;;
17369;SDS011;8802;52.402;4.920;2022-12-07T06:51:44;5.28;;;0.60;;
17369;SDS011;8802;52.402;4.920;2022-12-07T06:54:11;1.55;;;0.43;;
17369;SDS011;8802;52.402;4.920;2022-12-07T06:56:40;2.55;;;0.43;;
17369;SDS011;8802;52.402;4.920;2022-12-07T06:59:07;2.60;;;0.70;;
17369;SDS011;8802;52.402;4.920;2022-12-07T07:01:34;1.35;;;0.43;;
17369;SDS011;8802;52.402;4.920;2022-12-07T07:04:02;3.28;;;0.60;;
17369;SDS011;8802;52.402;4.920;2022-12-07T07:06:30;3.45;;;0.65;;
17369;SDS011;8802;52.402;4.920;2022-12-07T07:08:57;3.63;;;0.63;;
17369;SDS011;8802;52.402;4.920;2022-12-07T07:11:24;2.45;;;0.82;;
17369;SDS011;8802;52.402;4.920;2022-12-07T07:13:50;4.10;;;1.00;;
17369;SDS011;8802;52.402;4.920;2022-12-07T07:16:18;2.53;;;1.00;;
17369;SDS011;8802;52.402;4.920;2022-12-07T07:18:44;6.00;;;0.80;;
17369;SDS011;8802;52.402;4.920;2022-12-07T07:21:11;2.97;;;0.75;;
17369;SDS011;8802;52.402;4.920;2022-12-07T07:23:39;4.32;;;1.00;;
17369;SDS011;8802;52.402;4.920;2022-12-07T07:26:06;1.73;;;0.82;;
17369;SDS011;8802;52.402;4.920;2022-12-07T07:28:33;5.05;;;0.88;;
17369;SDS011;8802;52.402;4.920;2022-12-07T07:31:00;3.60;;;0.98;;
17369;SDS011;8802;52.402;4.920;2022-12-07T07:33:27;3.30;;;0.70;;
17369;SDS011;8802;52.402;4.920;2022-12-07T07:35:53;3.35;;;0.60;;
17369;SDS011;8802;52.402;4.920;2022-12-07T07:38:20;2.17;;;0.60;;
17369;SDS011;8802;52.402;4.920;2022-12-07T07:40:48;3.80;;;1.00;;
17369;SDS011;8802;52.402;4.920;2022-12-07T07:43:15;3.30;;;1.00;;
17369;SDS011;8802;52.402;4.920;2022-12-07T07:45:42;2.25;;;0.60;;
17369;SDS011;8802;52.402;4.920;2022-12-07T07:48:10;4.20;;;0.82;;
17369;SDS011;8802;52.402;4.920;2022-12-07T07:50:36;3.42;;;0.80;;
17369;SDS011;8802;52.402;4.920;2022-12-07T07:53:03;2.20;;;0.90;;
17369;SDS011;8802;52.402;4.920;2022-12-07T07:55:30;3.33;;;1.25;;
17369;SDS011;8802;52.402;4.920;2022-12-07T07:57:58;6.82;;;1.02;;
17369;SDS011;8802;52.402;4.920;2022-12-07T08:00:25;2.78;;;0.90;;
17369;SDS011;8802;52.402;4.920;2022-12-07T08:02:52;1.98;;;0.60;;
17369;SDS011;8802;52.402;4.920;2022-12-07T08:05:19;3.92;;;0.70;;
17369;SDS011;8802;52.402;4.920;2022-12-07T08:07:46;2.65;;;1.00;;
17369;SDS011;8802;52.402;4.920;2022-12-07T08:10:13;4.05;;;0.90;;
17369;SDS011;8802;52.402;4.920;2022-12-07T08:12:40;2.13;;;0.77;;
17369;SDS011;8802;52.402;4.920;2022-12-07T08:15:23;1.63;;;0.75;;
17369;SDS011;8802;52.402;4.920;2022-12-07T08:17:51;4.28;;;0.80;;
17369;SDS011;8802;52.402;4.920;2022-12-07T08:20:17;2.85;;;0.85;;
17369;SDS011;8802;52.402;4.920;2022-12-07T08:22:44;2.97;;;0.98;;
17369;SDS011;8802;52.402;4.920;2022-12-07T08:25:11;4.20;;;1.00;;
17369;SDS011;8802;52.402;4.920;2022-12-07T08:27:38;1.45;;;0.60;;
17369;SDS011;8802;52.402;4.920;2022-12-07T08:30:05;4.03;;;0.90;;
17369;SDS011;8802;52.402;4.920;2022-12-07T08:32:34;2.05;;;0.88;;
17369;SDS011;8802;52.402;4.920;2022-12-07T08:35:01;3.28;;;1.17;;
17369;SDS011;8802;52.402;4.920;2022-12-07T08:37:28;3.25;;;0.75;;
17369;SDS011;8802;52.402;4.920;2022-12-07T08:39:55;2.63;;;0.85;;
17369;SDS011;8802;52.402;4.920;2022-12-07T08:42:22;3.40;;;0.70;;
17369;SDS011;8802;52.402;4.920;2022-12-07T08:44:52;1.58;;;0.82;;
17369;SDS011;8802;52.402;4.920;2022-12-07T08:47:19;3.25;;;0.90;;
17369;SDS011;8802;52.402;4.920;2022-12-07T08:49:47;3.17;;;1.00;;
17369;SDS011;8802;52.402;4.920;2022-12-07T08:52:16;3.17;;;1.10;;
17369;SDS011;8802;52.402;4.920;2022-12-07T08:54:44;4.00;;;1.17;;
17369;SDS011;8802;52.402;4.920;2022-12-07T08:57:11;4.75;;;1.45;;
17369;SDS011;8802;52.402;4.920;2022-12-07T08:59:38;3.83;;;1.20;;
17369;SDS011;8802;52.402;4.920;2022-12-07T09:02:05;3.63;;;1.13;;
17369;SDS011;8802;52.402;4.920;2022-12-07T09:04:32;4.40;;;1.10;;
17369;SDS011;8802;52.402;4.920;2022-12-07T09:07:00;3.65;;;1.10;;
17369;SDS011;8802;52.402;4.920;2022-12-07T09:09:28;5.78;;;1.08;;
17369;SDS011;8802;52.402;4.920;2022-12-07T09:11:55;4.10;;;1.08;;
17369;SDS011;8802;52.402;4.920;2022-12-07T09:14:21;3.63;;;0.95;;
17369;SDS011;8802;52.402;4.920;2022-12-07T09:16:48;2.53;;;1.05;;
17369;SDS011;8802;52.402;4.920;2022-12-07T09:19:15;6.40;;;1.20;;
17369;SDS011;8802;52.402;4.920;2022-12-07T09:21:42;2.80;;;1.13;;
17369;SDS011;8802;52.402;4.920;2022-12-07T09:24:11;4.30;;;1.10;;
17369;SDS011;8802;52.402;4.920;2022-12-07T09:26:37;3.45;;;1.00;;
17369;SDS011;8802;52.402;4.920;2022-12-07T09:29:05;5.35;;;1.10;;
17369;SDS011;8802;52.402;4.920;2022-12-07T09:31:32;5.57;;;1.50;;
17369;SDS011;8802;52.402;4.920;2022-12-07T09:34:01;4.72;;;1.13;;
17369;SDS011;8802;52.402;4.920;2022-12-07T09:36:30;2.10;;;0.90;;
17369;SDS011;8802;52.402;4.920;2022-12-07T09:38:57;4.43;;;1.25;;
17369;SDS011;8802;52.402;4.920;2022-12-07T09:41:25;3.92;;;1.30;;
17369;SDS011;8802;52.402;4.920;2022-12-07T09:43:53;4.20;;;0.98;;
17369;SDS011;8802;52.402;4.920;2022-12-07T09:46:29;5.47;;;1.17;;
17369;SDS011;8802;52.402;4.920;2022-12-07T09:49:01;7.80;;;1.10;;
17369;SDS011;8802;52.402;4.920;2022-12-07T09:51:28;4.57;;;1.15;;
17369;SDS011;8802;52.402;4.920;2022-12-07T09:53:55;3.05;;;0.95;;
17369;SDS011;8802;52.402;4.920;2022-12-07T09:56:25;3.95;;;1.10;;
17369;SDS011;8802;52.402;4.920;2022-12-07T09:58:58;3.85;;;1.00;;
17369;SDS011;8802;52.402;4.920;2022-12-07T10:01:27;2.90;;;1.13;;
17369;SDS011;8802;52.402;4.920;2022-12-07T10:03:59;4.75;;;1.17;;
17369;SDS011;8802;52.402;4.920;2022-12-07T10:06:31;4.40;;;0.90;;
17369;SDS011;8802;52.402;4.920;2022-12-07T10:08:58;3.42;;;0.88;;
17369;SDS011;8802;52.402;4.920;2022-12-07T10:11:26;4.88;;;1.27;;
17369;SDS011;8802;52.402;4.920;2022-12-07T10:13:53;4.85;;;1.50;;
17369;SDS011;8802;52.402;4.920;2022-12-07T10:16:27;3.13;;;1.17;;
17369;SDS011;8802;52.402;4.920;2022-12-07T10:19:16;2.65;;;1.20;;
17369;SDS011;8802;52.402;4.920;2022-12-07T10:21:58;5.18;;;1.40;;
17369;SDS011;8802;52.402;4.920;2022-12-07T10:24:27;4.93;;;1.48;;
17369;SDS011;8802;52.402;4.920;2022-12-07T10:26:56;3.90;;;1.40;;
17369;SDS011;8802;52.402;4.920;2022-12-07T10:29:24;4.57;;;1.30;;
17369;SDS011;8802;52.402;4.920;2022-12-07T10:31:57;4.47;;;1.92;;
17369;SDS011;8802;52.402;4.920;2022-12-07T10:34:25;3.38;;;1.58;;
17369;SDS011;8802;52.402;4.920;2022-12-07T10:37:06;8.70;;;1.73;;
17369;SDS011;8802;52.402;4.920;2022-12-07T10:39:41;3.30;;;1.40;;
17369;SDS011;8802;52.402;4.920;2022-12-07T10:42:16;3.88;;;1.40;;
17369;SDS011;8802;52.402;4.920;2022-12-07T10:44:45;6.22;;;1.60;;
17369;SDS011;8802;52.402;4.920;2022-12-07T10:47:15;5.07;;;1.35;;
17369;SDS011;8802;52.402;4.920;2022-12-07T10:49:59;6.13;;;1.27;;
17369;SDS011;8802;52.402;4.920;2022-12-07T10:52:56;6.35;;;1.50;;
17369;SDS011;8802;52.402;4.920;2022-12-07T10:55:37;4.55;;;1.25;;
17369;SDS011;8802;52.402;4.920;2022-12-07T10:58:22;7.75;;;1.38;;
17369;SDS011;8802;52.402;4.920;2022-12-07T11:00:59;5.18;;;1.40;;
17369;SDS011;8802;52.402;4.920;2022-12-07T11:03:37;6.25;;;1.10;;
17369;SDS011;8802;52.402;4.920;2022-12-07T11:06:22;3.20;;;0.90;;
17369;SDS011;8802;52.402;4.920;2022-12-07T11:09:00;6.15;;;1.20;;
17369;SDS011;8802;52.402;4.920;2022-12-07T11:11:43;6.25;;;1.38;;
17369;SDS011;8802;52.402;4.920;2022-12-07T11:14:20;4.18;;;1.05;;
17369;SDS011;8802;52.402;4.920;2022-12-07T11:16:55;8.77;;;1.50;;
17369;SDS011;8802;52.402;4.920;2022-12-07T11:19:32;7.05;;;1.33;;
17369;SDS011;8802;52.402;4.920;2022-12-07T11:22:16;4.40;;;1.15;;
17369;SDS011;8802;52.402;4.920;2022-12-07T11:24:48;3.78;;;1.02;;
17369;SDS011;8802;52.402;4.920;2022-12-07T11:27:23;4.22;;;1.45;;
17369;SDS011;8802;52.402;4.920;2022-12-07T11:30:14;5.88;;;1.30;;
17369;SDS011;8802;52.402;4.920;2022-12-07T11:32:49;4.53;;;1.17;;
17369;SDS011;8802;52.402;4.920;2022-12-07T11:35:24;7.05;;;1.33;;
17369;SDS011;8802;52.402;4.920;2022-12-07T11:38:03;5.43;;;1.00;;
17369;SDS011;8802;52.402;4.920;2022-12-07T11:40:37;4.93;;;1.00;;
17369;SDS011;8802;52.402;4.920;2022-12-07T11:43:09;3.85;;;1.17;;
17369;SDS011;8802;52.402;4.920;2022-12-07T11:45:43;4.03;;;0.63;;
17369;SDS011;8802;52.402;4.920;2022-12-07T11:48:14;5.00;;;1.08;;
17369;SDS011;8802;52.402;4.920;2022-12-07T11:50:48;5.13;;;0.95;;
17369;SDS011;8802;52.402;4.920;2022-12-07T11:53:20;3.85;;;0.90;;
17369;SDS011;8802;52.402;4.920;2022-12-07T11:55:52;4.32;;;1.83;;
17369;SDS011;8802;52.402;4.920;2022-12-07T11:58:32;5.03;;;2.40;;
17369;SDS011;8802;52.402;4.920;2022-12-07T12:01:11;5.93;;;1.23;;
17369;SDS011;8802;52.402;4.920;2022-12-07T12:03:46;4.18;;;0.98;;
17369;SDS011;8802;52.402;4.920;2022-12-07T12:06:14;3.30;;;0.73;;
17369;SDS011;8802;52.402;4.920;2022-12-07T12:08:42;3.80;;;0.80;;
17369;SDS011;8802;52.402;4.920;2022-12-07T12:11:15;4.35;;;0.70;;
17369;SDS011;8802;52.402;4.920;2022-12-07T12:16:42;2.22;;;0.60;;
17369;SDS011;8802;52.402;4.920;2022-12-07T12:19:35;4.15;;;0.50;;
17369;SDS011;8802;52.402;4.920;2022-12-07T12:22:10;4.72;;;1.00;;
17369;SDS011;8802;52.402;4.920;2022-12-07T12:24:40;3.25;;;0.55;;
17369;SDS011;8802;52.402;4.920;2022-12-07T12:27:08;5.05;;;0.88;;
17369;SDS011;8802;52.402;4.920;2022-12-07T12:29:44;2.92;;;0.75;;
17369;SDS011;8802;52.402;4.920;2022-12-07T12:32:20;1.92;;;0.60;;
17369;SDS011;8802;52.402;4.920;2022-12-07T12:34:59;5.05;;;0.90;;
17369;SDS011;8802;52.402;4.920;2022-12-07T12:37:43;2.78;;;0.68;;
17369;SDS011;8802;52.402;4.920;2022-12-07T12:49:32;2.85;;;0.70;;
17369;SDS011;8802;52.402;4.920;2022-12-07T12:52:01;4.28;;;0.85;;
17369;SDS011;8802;52.402;4.920;2022-12-07T12:55:12;4.40;;;0.60;;
17369;SDS011;8802;52.402;4.920;2022-12-07T12:57:43;4.03;;;0.70;;
17369;SDS011;8802;52.402;4.920;2022-12-07T13:00:16;2.80;;;0.90;;
17369;SDS011;8802;52.402;4.920;2022-12-07T13:02:47;1.65;;;0.60;;
17369;SDS011;8802;52.402;4.920;2022-12-07T13:05:17;3.67;;;0.60;;
17369;SDS011;8802;52.402;4.920;2022-12-07T13:07:59;3.38;;;0.57;;
17369;SDS011;8802;52.402;4.920;2022-12-07T13:10:34;3.60;;;0.68;;
17369;SDS011;8802;52.402;4.920;2022-12-07T13:22:08;5.72;;;0.85;;
17369;SDS011;8802;52.402;4.920;2022-12-07T13:25:09;2.08;;;0.73;;
17369;SDS011;8802;52.402;4.920;2022-12-07T13:27:39;4.30;;;0.95;;
17369;SDS011;8802;52.402;4.920;2022-12-07T13:30:13;5.85;;;0.90;;
17369;SDS011;8802;52.402;4.920;2022-12-07T13:32:41;4.78;;;0.82;;
17369;SDS011;8802;52.402;4.920;2022-12-07T13:35:28;4.03;;;1.08;;
17369;SDS011;8802;52.402;4.920;2022-12-07T13:38:02;3.20;;;0.70;;
17369;SDS011;8802;52.402;4.920;2022-12-07T13:40:32;3.20;;;0.70;;
17369;SDS011;8802;52.402;4.920;2022-12-07T13:42:59;6.65;;;0.82;;
17369;SDS011;8802;52.402;4.920;2022-12-07T13:45:28;3.72;;;0.90;;
17369;SDS011;8802;52.402;4.920;2022-12-07T13:48:24;2.33;;;0.60;;
17369;SDS011;8802;52.402;4.920;2022-12-07T13:50:57;5.13;;;0.93;;
17369;SDS011;8802;52.402;4.920;2022-12-07T13:53:27;5.65;;;1.00;;
17369;SDS011;8802;52.402;4.920;2022-12-07T13:55:55;7.18;;;1.20;;
17369;SDS011;8802;52.402;4.920;2022-12-07T13:58:23;2.03;;;0.75;;
17369;SDS011;8802;52.402;4.920;2022-12-07T14:01:00;2.30;;;0.50;;
17369;SDS011;8802;52.402;4.920;2022-12-07T14:03:29;1.73;;;0.70;;
17369;SDS011;8802;52.402;4.920;2022-12-07T14:09:06;3.13;;;0.90;;
17369;SDS011;8802;52.402;4.920;2022-12-07T14:11:34;1.48;;;0.60;;
17369;SDS011;8802;52.402;4.920;2022-12-07T14:14:02;2.75;;;0.60;;
17369;SDS011;8802;52.402;4.920;2022-12-07T14:16:31;2.83;;;0.80;;
17369;SDS011;8802;52.402;4.920;2022-12-07T14:19:00;3.67;;;0.73;;
17369;SDS011;8802;52.402;4.920;2022-12-07T14:21:30;2.38;;;0.82;;
17369;SDS011;8802;52.402;4.920;2022-12-07T14:24:02;2.45;;;0.60;;
17369;SDS011;8802;52.402;4.920;2022-12-07T14:26:36;2.15;;;0.45;;
17369;SDS011;8802;52.402;4.920;2022-12-07T14:29:20;2.88;;;0.93;;
17369;SDS011;8802;52.402;4.920;2022-12-07T14:31:49;3.10;;;0.80;;
17369;SDS011;8802;52.402;4.920;2022-12-07T14:34:16;2.92;;;0.57;;
17369;SDS011;8802;52.402;4.920;2022-12-07T14:36:42;2.38;;;0.77;;
17369;SDS011;8802;52.402;4.920;2022-12-07T14:39:11;3.33;;;0.70;;
17369;SDS011;8802;52.402;4.920;2022-12-07T14:41:37;1.83;;;0.70;;
17369;SDS011;8802;52.402;4.920;2022-12-07T14:44:17;3.25;;;0.77;;
17369;SDS011;8802;52.402;4.920;2022-12-07T14:46:44;4.40;;;0.90;;
17369;SDS011;8802;52.402;4.920;2022-12-07T14:49:11;2.17;;;0.70;;
17369;SDS011;8802;52.402;4.920;2022-12-07T14:51:39;2.22;;;0.70;;
17369;SDS011;8802;52.402;4.920;2022-12-07T14:54:11;3.67;;;0.88;;
17369;SDS011;8802;52.402;4.920;2022-12-07T14:56:41;2.35;;;0.60;;
17369;SDS011;8802;52.402;4.920;2022-12-07T14:59:09;2.80;;;0.80;;
17369;SDS011;8802;52.402;4.920;2022-12-07T15:01:36;4.30;;;0.75;;
17369;SDS011;8802;52.402;4.920;2022-12-07T15:04:03;2.20;;;0.65;;
17369;SDS011;8802;52.402;4.920;2022-12-07T15:06:30;1.95;;;0.70;;
17369;SDS011;8802;52.402;4.920;2022-12-07T15:08:57;2.05;;;0.70;;
17369;SDS011;8802;52.402;4.920;2022-12-07T15:11:25;1.85;;;0.70;;
17369;SDS011;8802;52.402;4.920;2022-12-07T15:13:54;1.48;;;0.52;;
17369;SDS011;8802;52.402;4.920;2022-12-07T15:16:38;3.15;;;0.75;;
17369;SDS011;8802;52.402;4.920;2022-12-07T15:19:06;1.83;;;0.60;;
17369;SDS011;8802;52.402;4.920;2022-12-07T15:21:40;3.28;;;0.77;;
17369;SDS011;8802;52.402;4.920;2022-12-07T15:24:08;3.25;;;0.85;;
17369;SDS011;8802;52.402;4.920;2022-12-07T15:26:37;3.40;;;0.82;;
17369;SDS011;8802;52.402;4.920;2022-12-07T15:29:05;2.78;;;0.70;;
17369;SDS011;8802;52.402;4.920;2022-12-07T15:31:32;3.17;;;0.70;;
17369;SDS011;8802;52.402;4.920;2022-12-07T15:34:00;4.53;;;1.08;;
17369;SDS011;8802;52.402;4.920;2022-12-07T15:36:27;3.92;;;1.10;;
17369;SDS011;8802;52.402;4.920;2022-12-07T15:38:56;2.42;;;0.77;;
17369;SDS011;8802;52.402;4.920;2022-12-07T15:41:22;3.15;;;1.00;;
17369;SDS011;8802;52.402;4.920;2022-12-07T15:43:51;3.15;;;0.90;;
17369;SDS011;8802;52.402;4.920;2022-12-07T15:46:36;3.03;;;1.40;;
17369;SDS011;8802;52.402;4.920;2022-12-07T15:49:06;2.88;;;1.05;;
17369;SDS011;8802;52.402;4.920;2022-12-07T15:51:37;5.57;;;1.00;;